sensor_id;sensor_type;location;lat;lon;timestamp;pressure;altitude;pressure_sealevel;temperature;humidity
31911;BME280;18457;52.432;16.914;2023-11-21T00:00:15;99697.77;;;8.38;100.00
31911;BME280;18457;52.432;16.914;2023-11-21T00:03:07;99703.58;;;8.36;100.00
31911;BME280;18457;52.432;16.914;2023-11-21T00:05:42;99703.44;;;8.35;100.00
31911;BME280;18457;52.432;16.914;2023-11-21T00:08:14;99710.45;;;8.35;100.00
31911;BME280;18457;52.432;16.914;2023-11-21T00:10:46;99708.33;;;8.34;100.00
31911;BME280;18457;52.432;16.914;2023-11-21T00:13:17;99705.90;;;8.30;100.00
31911;BME280;18457;52.432;16.914;2023-11-21T00:15:50;99703.88;;;8.25;100.00
31911;BME280;18457;52.432;16.914;2023-11-21T00:18:23;99700.38;;;8.20;100.00
31911;BME280;18457;52.432;16.914;2023-11-21T00:20:53;99698.19;;;8.14;100.00
31911;BME280;18457;52.432;16.914;2023-11-21T00:23:26;99704.92;;;8.11;100.00
31911;BME280;18457;52.432;16.914;2023-11-21T00:25:58;99711.20;;;8.12;100.00
31911;BME280;18457;52.432;16.914;2023-11-21T00:28:30;99721.36;;;7.94;100.00
31911;BME280;18457;52.432;16.914;2023-11-21T00:31:03;99722.95;;;7.95;100.00
31911;BME280;18457;52.432;16.914;2023-11-21T00:33:36;99725.05;;;7.90;100.00
31911;BME280;18457;52.432;16.914;2023-11-21T00:36:10;99729.53;;;7.90;100.00
31911;BME280;18457;52.432;16.914;2023-11-21T00:38:43;99728.46;;;7.90;100.00
31911;BME280;18457;52.432;16.914;2023-11-21T00:41:15;99729.70;;;7.75;100.00
31911;BME280;18457;52.432;16.914;2023-11-21T00:43:48;99733.89;;;7.66;100.00
31911;BME280;18457;52.432;16.914;2023-11-21T00:46:21;99732.19;;;7.62;100.00
31911;BME280;18457;52.432;16.914;2023-11-21T00:48:55;99732.77;;;7.60;100.00
31911;BME280;18457;52.432;16.914;2023-11-21T00:51:27;99733.64;;;7.53;100.00
31911;BME280;18457;52.432;16.914;2023-11-21T00:53:59;99732.48;;;7.57;100.00
31911;BME280;18457;52.432;16.914;2023-11-21T00:56:32;99737.36;;;7.57;100.00
31911;BME280;18457;52.432;16.914;2023-11-21T00:59:04;99736.89;;;7.61;100.00
31911;BME280;18457;52.432;16.914;2023-11-21T01:01:38;99736.91;;;7.60;100.00
31911;BME280;18457;52.432;16.914;2023-11-21T01:04:10;99735.33;;;7.59;100.00
31911;BME280;18457;52.432;16.914;2023-11-21T01:06:43;99733.53;;;7.50;100.00
31911;BME280;18457;52.432;16.914;2023-11-21T01:09:16;99733.04;;;7.48;100.00
31911;BME280;18457;52.432;16.914;2023-11-21T01:11:49;99733.88;;;7.44;100.00
31911;BME280;18457;52.432;16.914;2023-11-21T01:14:22;99739.23;;;7.45;100.00
31911;BME280;18457;52.432;16.914;2023-11-21T01:16:57;99742.22;;;7.47;100.00
31911;BME280;18457;52.432;16.914;2023-11-21T01:19:29;99742.42;;;7.47;100.00
31911;BME280;18457;52.432;16.914;2023-11-21T01:22:01;99742.23;;;7.47;100.00
31911;BME280;18457;52.432;16.914;2023-11-21T01:24:35;99747.11;;;7.47;100.00
31911;BME280;18457;52.432;16.914;2023-11-21T01:27:08;99750.38;;;7.45;100.00
31911;BME280;18457;52.432;16.914;2023-11-21T01:29:40;99756.00;;;7.42;100.00
31911;BME280;18457;52.432;16.914;2023-11-21T01:32:12;99756.98;;;7.39;100.00
31911;BME280;18457;52.432;16.914;2023-11-21T01:34:46;99758.11;;;7.36;100.00
31911;BME280;18457;52.432;16.914;2023-11-21T01:37:18;99760.12;;;7.35;100.00
31911;BME280;18457;52.432;16.914;2023-11-21T01:39:50;99768.40;;;7.33;100.00
31911;BME280;18457;52.432;16.914;2023-11-21T01:42:22;99762.79;;;7.19;100.00
31911;BME280;18457;52.432;16.914;2023-11-21T01:44:54;99763.42;;;7.15;100.00
31911;BME280;18457;52.432;16.914;2023-11-21T01:47:26;99760.13;;;7.18;100.00
31911;BME280;18457;52.432;16.914;2023-11-21T01:49:59;99759.53;;;7.12;100.00
31911;BME280;18457;52.432;16.914;2023-11-21T01:52:31;99758.42;;;7.14;100.00
31911;BME280;18457;52.432;16.914;2023-11-21T01:55:05;99767.70;;;7.07;100.00
31911;BME280;18457;52.432;16.914;2023-11-21T01:57:39;99771.88;;;7.06;100.00
31911;BME280;18457;52.432;16.914;2023-11-21T02:00:14;99771.08;;;6.99;100.00
31911;BME280;18457;52.432;16.914;2023-11-21T02:02:48;99774.95;;;6.95;100.00
31911;BME280;18457;52.432;16.914;2023-11-21T02:05:21;99775.70;;;6.93;100.00
31911;BME280;18457;52.432;16.914;2023-11-21T02:07:53;99782.09;;;6.78;100.00
31911;BME280;18457;52.432;16.914;2023-11-21T02:10:25;99785.02;;;6.75;100.00
31911;BME280;18457;52.432;16.914;2023-11-21T02:12:58;99786.55;;;6.71;100.00
31911;BME280;18457;52.432;16.914;2023-11-21T02:15:33;99787.98;;;6.80;100.00
31911;BME280;18457;52.432;16.914;2023-11-21T02:18:07;99787.92;;;6.83;100.00
31911;BME280;18457;52.432;16.914;2023-11-21T02:20:41;99792.95;;;6.74;100.00
31911;BME280;18457;52.432;16.914;2023-11-21T02:23:12;99793.73;;;6.80;100.00
31911;BME280;18457;52.432;16.914;2023-11-21T02:25:45;99799.40;;;6.83;100.00
31911;BME280;18457;52.432;16.914;2023-11-21T02:28:19;99797.38;;;6.86;100.00
31911;BME280;18457;52.432;16.914;2023-11-21T02:30:57;99801.99;;;6.89;100.00
31911;BME280;18457;52.432;16.914;2023-11-21T02:33:30;99804.86;;;6.80;100.00
31911;BME280;18457;52.432;16.914;2023-11-21T02:36:05;99810.27;;;6.79;100.00
31911;BME280;18457;52.432;16.914;2023-11-21T02:38:37;99818.74;;;6.76;100.00
31911;BME280;18457;52.432;16.914;2023-11-21T02:41:09;99820.70;;;6.77;100.00
31911;BME280;18457;52.432;16.914;2023-11-21T02:43:41;99822.45;;;6.81;100.00
31911;BME280;18457;52.432;16.914;2023-11-21T02:46:14;99821.50;;;6.83;100.00
31911;BME280;18457;52.432;16.914;2023-11-21T02:48:46;99819.20;;;6.81;100.00
31911;BME280;18457;52.432;16.914;2023-11-21T02:51:18;99823.40;;;6.57;100.00
31911;BME280;18457;52.432;16.914;2023-11-21T02:53:50;99833.81;;;6.58;100.00
31911;BME280;18457;52.432;16.914;2023-11-21T02:56:22;99832.36;;;6.57;100.00
31911;BME280;18457;52.432;16.914;2023-11-21T02:58:56;99828.65;;;6.55;100.00
31911;BME280;18457;52.432;16.914;2023-11-21T03:01:29;99829.26;;;6.51;100.00
31911;BME280;18457;52.432;16.914;2023-11-21T03:04:00;99830.17;;;6.50;100.00
31911;BME280;18457;52.432;16.914;2023-11-21T03:06:33;99824.38;;;6.53;100.00
31911;BME280;18457;52.432;16.914;2023-11-21T03:09:05;99831.09;;;6.58;100.00
31911;BME280;18457;52.432;16.914;2023-11-21T03:11:39;99827.99;;;6.51;100.00
31911;BME280;18457;52.432;16.914;2023-11-21T03:14:14;99830.94;;;6.47;100.00
31911;BME280;18457;52.432;16.914;2023-11-21T03:16:47;99835.98;;;6.46;100.00
31911;BME280;18457;52.432;16.914;2023-11-21T03:19:21;99840.38;;;6.50;100.00
31911;BME280;18457;52.432;16.914;2023-11-21T03:21:54;99842.02;;;6.39;100.00
31911;BME280;18457;52.432;16.914;2023-11-21T03:24:27;99844.66;;;6.42;100.00
31911;BME280;18457;52.432;16.914;2023-11-21T03:26:59;99845.57;;;6.41;100.00
31911;BME280;18457;52.432;16.914;2023-11-21T03:29:31;99847.25;;;6.37;100.00
31911;BME280;18457;52.432;16.914;2023-11-21T03:32:04;99852.19;;;6.31;100.00
31911;BME280;18457;52.432;16.914;2023-11-21T03:34:54;99855.92;;;6.33;100.00
31911;BME280;18457;52.432;16.914;2023-11-21T03:37:29;99859.44;;;6.26;100.00
31911;BME280;18457;52.432;16.914;2023-11-21T03:39:59;99867.48;;;6.28;100.00
31911;BME280;18457;52.432;16.914;2023-11-21T03:42:34;99868.57;;;6.27;100.00
31911;BME280;18457;52.432;16.914;2023-11-21T03:45:09;99871.51;;;6.23;100.00
31911;BME280;18457;52.432;16.914;2023-11-21T03:47:44;99875.11;;;6.21;100.00
31911;BME280;18457;52.432;16.914;2023-11-21T03:50:16;99874.23;;;6.20;100.00
31911;BME280;18457;52.432;16.914;2023-11-21T03:52:47;99866.44;;;6.14;100.00
31911;BME280;18457;52.432;16.914;2023-11-21T03:55:19;99869.85;;;6.01;100.00
31911;BME280;18457;52.432;16.914;2023-11-21T03:57:54;99869.48;;;6.01;100.00
31911;BME280;18457;52.432;16.914;2023-11-21T04:00:27;99871.93;;;5.93;100.00
31911;BME280;18457;52.432;16.914;2023-11-21T04:03:00;99871.73;;;5.94;100.00
31911;BME280;18457;52.432;16.914;2023-11-21T04:05:32;99867.65;;;5.93;100.00
31911;BME280;18457;52.432;16.914;2023-11-21T04:08:04;99862.67;;;5.90;100.00
31911;BME280;18457;52.432;16.914;2023-11-21T04:10:35;99864.65;;;5.89;100.00
31911;BME280;18457;52.432;16.914;2023-11-21T04:13:09;99871.20;;;5.81;100.00
31911;BME280;18457;52.432;16.914;2023-11-21T04:15:41;99871.35;;;5.82;100.00
31911;BME280;18457;52.432;16.914;2023-11-21T04:18:14;99876.09;;;5.76;100.00
31911;BME280;18457;52.432;16.914;2023-11-21T04:20:46;99874.58;;;5.83;100.00
31911;BME280;18457;52.432;16.914;2023-11-21T04:23:18;99877.97;;;5.85;100.00
31911;BME280;18457;52.432;16.914;2023-11-21T04:25:50;99877.44;;;5.84;100.00
31911;BME280;18457;52.432;16.914;2023-11-21T04:28:25;99881.86;;;5.73;100.00
31911;BME280;18457;52.432;16.914;2023-11-21T04:30:57;99883.80;;;5.75;100.00
31911;BME280;18457;52.432;16.914;2023-11-21T04:33:29;99885.75;;;5.63;100.00
31911;BME280;18457;52.432;16.914;2023-11-21T04:36:00;99892.80;;;5.59;100.00
31911;BME280;18457;52.432;16.914;2023-11-21T04:38:32;99897.70;;;5.52;100.00
31911;BME280;18457;52.432;16.914;2023-11-21T04:41:05;99903.38;;;5.43;100.00
31911;BME280;18457;52.432;16.914;2023-11-21T04:43:37;99906.38;;;5.46;100.00
31911;BME280;18457;52.432;16.914;2023-11-21T04:46:10;99910.31;;;5.47;100.00
31911;BME280;18457;52.432;16.914;2023-11-21T04:48:40;99913.91;;;5.45;100.00
31911;BME280;18457;52.432;16.914;2023-11-21T04:51:13;99922.02;;;5.26;100.00
31911;BME280;18457;52.432;16.914;2023-11-21T04:53:45;99925.42;;;5.07;100.00
31911;BME280;18457;52.432;16.914;2023-11-21T04:56:17;99929.41;;;5.02;100.00
31911;BME280;18457;52.432;16.914;2023-11-21T04:58:49;99935.69;;;5.01;100.00
31911;BME280;18457;52.432;16.914;2023-11-21T05:01:21;99939.25;;;5.02;100.00
31911;BME280;18457;52.432;16.914;2023-11-21T05:03:53;99938.51;;;5.05;100.00
31911;BME280;18457;52.432;16.914;2023-11-21T05:06:27;99942.05;;;5.09;100.00
31911;BME280;18457;52.432;16.914;2023-11-21T05:09:00;99945.66;;;5.05;100.00
31911;BME280;18457;52.432;16.914;2023-11-21T05:11:32;99946.00;;;5.08;100.00
31911;BME280;18457;52.432;16.914;2023-11-21T05:14:04;99951.11;;;4.97;100.00
31911;BME280;18457;52.432;16.914;2023-11-21T05:16:38;99953.24;;;4.99;100.00
31911;BME280;18457;52.432;16.914;2023-11-21T05:19:11;99960.20;;;5.02;100.00
31911;BME280;18457;52.432;16.914;2023-11-21T05:21:44;99959.48;;;5.02;100.00
31911;BME280;18457;52.432;16.914;2023-11-21T05:24:17;99962.48;;;5.06;100.00
31911;BME280;18457;52.432;16.914;2023-11-21T05:26:49;99969.31;;;5.02;100.00
31911;BME280;18457;52.432;16.914;2023-11-21T05:29:23;99971.13;;;5.01;100.00
31911;BME280;18457;52.432;16.914;2023-11-21T05:31:56;99980.05;;;5.03;100.00
31911;BME280;18457;52.432;16.914;2023-11-21T05:34:32;99981.90;;;4.96;100.00
31911;BME280;18457;52.432;16.914;2023-11-21T05:37:04;99983.64;;;4.77;100.00
31911;BME280;18457;52.432;16.914;2023-11-21T05:39:36;99987.42;;;4.77;100.00
31911;BME280;18457;52.432;16.914;2023-11-21T05:42:08;99988.10;;;4.81;100.00
31911;BME280;18457;52.432;16.914;2023-11-21T05:44:41;99987.73;;;4.84;100.00
31911;BME280;18457;52.432;16.914;2023-11-21T05:47:13;99986.13;;;4.83;100.00
31911;BME280;18457;52.432;16.914;2023-11-21T05:49:46;99982.06;;;4.76;100.00
31911;BME280;18457;52.432;16.914;2023-11-21T05:52:21;99987.59;;;4.79;100.00
31911;BME280;18457;52.432;16.914;2023-11-21T05:54:54;99986.56;;;4.72;100.00
31911;BME280;18457;52.432;16.914;2023-11-21T05:57:26;99986.98;;;4.65;100.00
31911;BME280;18457;52.432;16.914;2023-11-21T05:59:58;99984.76;;;4.73;100.00
31911;BME280;18457;52.432;16.914;2023-11-21T06:02:31;99994.10;;;4.69;100.00
31911;BME280;18457;52.432;16.914;2023-11-21T06:05:03;100001.45;;;4.66;100.00
31911;BME280;18457;52.432;16.914;2023-11-21T06:07:36;100012.92;;;4.62;100.00
31911;BME280;18457;52.432;16.914;2023-11-21T06:10:10;100017.30;;;4.48;100.00
31911;BME280;18457;52.432;16.914;2023-11-21T06:12:45;100021.24;;;4.50;100.00
31911;BME280;18457;52.432;16.914;2023-11-21T06:15:19;100026.91;;;4.56;100.00
31911;BME280;18457;52.432;16.914;2023-11-21T06:17:53;100030.48;;;4.57;100.00
31911;BME280;18457;52.432;16.914;2023-11-21T06:20:25;100034.27;;;4.54;100.00
31911;BME280;18457;52.432;16.914;2023-11-21T06:22:56;100037.29;;;4.57;100.00
31911;BME280;18457;52.432;16.914;2023-11-21T06:25:29;100047.36;;;4.46;100.00
31911;BME280;18457;52.432;16.914;2023-11-21T06:28:04;100052.02;;;4.43;100.00
31911;BME280;18457;52.432;16.914;2023-11-21T06:30:36;100053.43;;;4.49;100.00
31911;BME280;18457;52.432;16.914;2023-11-21T06:33:08;100056.80;;;4.52;100.00
31911;BME280;18457;52.432;16.914;2023-11-21T06:35:41;100057.89;;;4.53;100.00
31911;BME280;18457;52.432;16.914;2023-11-21T06:38:14;100063.63;;;4.47;100.00
31911;BME280;18457;52.432;16.914;2023-11-21T06:40:46;100072.94;;;4.46;100.00
31911;BME280;18457;52.432;16.914;2023-11-21T06:43:18;100085.64;;;4.43;100.00
31911;BME280;18457;52.432;16.914;2023-11-21T06:45:50;100084.77;;;4.40;100.00
31911;BME280;18457;52.432;16.914;2023-11-21T06:48:22;100088.13;;;4.49;100.00
31911;BME280;18457;52.432;16.914;2023-11-21T06:50:54;100092.42;;;4.46;100.00
31911;BME280;18457;52.432;16.914;2023-11-21T06:53:26;100093.84;;;4.52;100.00
31911;BME280;18457;52.432;16.914;2023-11-21T06:55:58;100093.83;;;4.52;100.00
31911;BME280;18457;52.432;16.914;2023-11-21T06:58:32;100100.09;;;4.49;100.00
31911;BME280;18457;52.432;16.914;2023-11-21T07:01:05;100098.53;;;4.41;100.00
31911;BME280;18457;52.432;16.914;2023-11-21T07:03:38;100104.04;;;4.48;100.00
31911;BME280;18457;52.432;16.914;2023-11-21T07:06:11;100104.94;;;4.49;100.00
31911;BME280;18457;52.432;16.914;2023-11-21T07:08:45;100113.69;;;4.54;100.00
31911;BME280;18457;52.432;16.914;2023-11-21T07:11:18;100110.27;;;4.56;100.00
31911;BME280;18457;52.432;16.914;2023-11-21T07:13:50;100112.61;;;4.55;100.00
31911;BME280;18457;52.432;16.914;2023-11-21T07:16:22;100116.35;;;4.56;100.00
31911;BME280;18457;52.432;16.914;2023-11-21T07:18:56;100121.55;;;4.51;100.00
31911;BME280;18457;52.432;16.914;2023-11-21T07:21:28;100126.73;;;4.50;100.00
31911;BME280;18457;52.432;16.914;2023-11-21T07:24:02;100129.61;;;4.55;100.00
31911;BME280;18457;52.432;16.914;2023-11-21T07:26:36;100131.39;;;4.52;100.00
31911;BME280;18457;52.432;16.914;2023-11-21T07:29:08;100133.89;;;4.51;100.00
31911;BME280;18457;52.432;16.914;2023-11-21T07:31:42;100135.34;;;4.46;100.00
31911;BME280;18457;52.432;16.914;2023-11-21T07:34:15;100137.36;;;4.35;100.00
31911;BME280;18457;52.432;16.914;2023-11-21T07:36:48;100143.98;;;4.32;100.00
31911;BME280;18457;52.432;16.914;2023-11-21T07:39:20;100144.87;;;4.32;100.00
31911;BME280;18457;52.432;16.914;2023-11-21T07:41:52;100146.29;;;4.38;100.00
31911;BME280;18457;52.432;16.914;2023-11-21T07:44:27;100143.41;;;4.38;100.00
31911;BME280;18457;52.432;16.914;2023-11-21T07:46:59;100148.41;;;4.40;100.00
31911;BME280;18457;52.432;16.914;2023-11-21T07:49:31;100151.63;;;4.42;100.00
31911;BME280;18457;52.432;16.914;2023-11-21T07:52:04;100152.54;;;4.38;100.00
31911;BME280;18457;52.432;16.914;2023-11-21T07:54:35;100156.86;;;4.31;100.00
31911;BME280;18457;52.432;16.914;2023-11-21T07:57:08;100160.80;;;4.30;100.00
31911;BME280;18457;52.432;16.914;2023-11-21T07:59:44;100158.09;;;4.35;100.00
31911;BME280;18457;52.432;16.914;2023-11-21T08:02:15;100159.72;;;4.34;100.00
31911;BME280;18457;52.432;16.914;2023-11-21T08:04:48;100163.48;;;4.28;100.00
31911;BME280;18457;52.432;16.914;2023-11-21T08:07:19;100164.92;;;4.24;100.00
31911;BME280;18457;52.432;16.914;2023-11-21T08:09:52;100170.81;;;4.23;100.00
31911;BME280;18457;52.432;16.914;2023-11-21T08:12:25;100177.27;;;4.19;100.00
31911;BME280;18457;52.432;16.914;2023-11-21T08:14:59;100177.11;;;4.09;100.00
31911;BME280;18457;52.432;16.914;2023-11-21T08:17:31;100180.14;;;4.09;100.00
31911;BME280;18457;52.432;16.914;2023-11-21T08:20:06;100184.79;;;4.13;100.00
31911;BME280;18457;52.432;16.914;2023-11-21T08:22:40;100184.95;;;4.17;100.00
31911;BME280;18457;52.432;16.914;2023-11-21T08:25:13;100187.99;;;4.18;100.00
31911;BME280;18457;52.432;16.914;2023-11-21T08:27:44;100183.86;;;4.25;100.00
31911;BME280;18457;52.432;16.914;2023-11-21T08:30:16;100184.58;;;4.27;100.00
31911;BME280;18457;52.432;16.914;2023-11-21T08:32:51;100193.86;;;4.30;100.00
31911;BME280;18457;52.432;16.914;2023-11-21T08:35:25;100195.65;;;4.31;100.00
31911;BME280;18457;52.432;16.914;2023-11-21T08:37:56;100198.69;;;4.32;100.00
31911;BME280;18457;52.432;16.914;2023-11-21T08:40:28;100199.59;;;4.33;100.00
31911;BME280;18457;52.432;16.914;2023-11-21T08:43:01;100206.74;;;4.30;100.00
31911;BME280;18457;52.432;16.914;2023-11-21T08:45:36;100213.20;;;4.14;100.00
31911;BME280;18457;52.432;16.914;2023-11-21T08:48:08;100220.37;;;3.97;100.00
31911;BME280;18457;52.432;16.914;2023-11-21T08:50:42;100223.94;;;3.92;100.00
31911;BME280;18457;52.432;16.914;2023-11-21T08:53:14;100221.80;;;3.93;100.00
31911;BME280;18457;52.432;16.914;2023-11-21T08:55:46;100226.98;;;4.02;100.00
31911;BME280;18457;52.432;16.914;2023-11-21T08:58:19;100231.64;;;4.00;100.00
31911;BME280;18457;52.432;16.914;2023-11-21T09:00:51;100236.45;;;3.89;100.00
31911;BME280;18457;52.432;16.914;2023-11-21T09:03:24;100234.30;;;3.92;100.00
31911;BME280;18457;52.432;16.914;2023-11-21T09:05:57;100238.08;;;3.86;100.00
31911;BME280;18457;52.432;16.914;2023-11-21T09:08:30;100241.46;;;3.90;100.00
31911;BME280;18457;52.432;16.914;2023-11-21T09:11:03;100239.85;;;3.98;100.00
31911;BME280;18457;52.432;16.914;2023-11-21T09:13:37;100241.45;;;3.93;100.00
31911;BME280;18457;52.432;16.914;2023-11-21T09:16:10;100239.67;;;3.96;100.00
31911;BME280;18457;52.432;16.914;2023-11-21T09:18:43;100240.03;;;3.97;100.00
31911;BME280;18457;52.432;16.914;2023-11-21T09:21:16;100244.85;;;3.85;100.00
31911;BME280;18457;52.432;16.914;2023-11-21T09:23:49;100249.67;;;3.93;100.00
31911;BME280;18457;52.432;16.914;2023-11-21T09:26:21;100251.99;;;3.97;100.00
31911;BME280;18457;52.432;16.914;2023-11-21T09:28:54;100257.73;;;4.04;100.00
31911;BME280;18457;52.432;16.914;2023-11-21T09:31:27;100258.08;;;3.91;100.00
31911;BME280;18457;52.432;16.914;2023-11-21T09:34:00;100260.02;;;3.75;100.00
31911;BME280;18457;52.432;16.914;2023-11-21T09:36:33;100265.04;;;3.81;100.00
31911;BME280;18457;52.432;16.914;2023-11-21T09:39:05;100265.23;;;3.84;100.00
31911;BME280;18457;52.432;16.914;2023-11-21T09:41:46;100262.90;;;3.78;100.00
31911;BME280;18457;52.432;16.914;2023-11-21T09:44:26;100262.52;;;3.73;100.00
31911;BME280;18457;52.432;16.914;2023-11-21T09:47:03;100267.17;;;3.84;100.00
31911;BME280;18457;52.432;16.914;2023-11-21T09:49:40;100265.76;;;3.88;100.00
31911;BME280;18457;52.432;16.914;2023-11-21T09:52:21;100267.73;;;3.90;100.00
31911;BME280;18457;52.432;16.914;2023-11-21T09:54:57;100273.08;;;3.81;100.00
31911;BME280;18457;52.432;16.914;2023-11-21T09:57:30;100275.23;;;3.83;100.00
31911;BME280;18457;52.432;16.914;2023-11-21T10:00:06;100271.10;;;3.83;100.00
31911;BME280;18457;52.432;16.914;2023-11-21T10:02:43;100273.96;;;3.72;100.00
31911;BME280;18457;52.432;16.914;2023-11-21T10:05:16;100282.33;;;3.60;100.00
31911;BME280;18457;52.432;16.914;2023-11-21T10:07:57;100285.73;;;3.54;100.00
31911;BME280;18457;52.432;16.914;2023-11-21T10:10:31;100284.78;;;3.40;100.00
31911;BME280;18457;52.432;16.914;2023-11-21T10:13:06;100283.16;;;3.36;100.00
31911;BME280;18457;52.432;16.914;2023-11-21T10:15:43;100287.14;;;3.54;100.00
31911;BME280;18457;52.432;16.914;2023-11-21T10:18:20;100290.20;;;3.66;100.00
31911;BME280;18457;52.432;16.914;2023-11-21T10:20:55;100289.66;;;3.63;100.00
31911;BME280;18457;52.432;16.914;2023-11-21T10:23:29;100292.11;;;3.41;100.00
31911;BME280;18457;52.432;16.914;2023-11-21T10:26:02;100288.74;;;3.54;100.00
31911;BME280;18457;52.432;16.914;2023-11-21T10:28:58;100286.83;;;3.70;100.00
31911;BME280;18457;52.432;16.914;2023-11-21T10:31:32;100288.80;;;3.82;100.00
31911;BME280;18457;52.432;16.914;2023-11-21T10:34:16;100295.21;;;3.71;99.34
31911;BME280;18457;52.432;16.914;2023-11-21T10:36:49;100296.82;;;3.74;99.94
31911;BME280;18457;52.432;16.914;2023-11-21T10:39:20;100296.99;;;3.74;100.00
31911;BME280;18457;52.432;16.914;2023-11-21T10:41:56;100296.98;;;3.58;100.00
31911;BME280;18457;52.432;16.914;2023-11-21T10:44:30;100292.11;;;3.41;100.00
31911;BME280;18457;52.432;16.914;2023-11-21T10:47:04;100298.74;;;3.51;100.00
31911;BME280;18457;52.432;16.914;2023-11-21T10:49:38;100301.05;;;3.43;100.00
31911;BME280;18457;52.432;16.914;2023-11-21T10:52:14;100305.88;;;3.47;100.00
31911;BME280;18457;52.432;16.914;2023-11-21T10:54:48;100305.52;;;3.52;100.00
31911;BME280;18457;52.432;16.914;2023-11-21T10:57:22;100307.35;;;3.58;100.00
31911;BME280;18457;52.432;16.914;2023-11-21T10:59:55;100305.73;;;3.65;100.00
31911;BME280;18457;52.432;16.914;2023-11-21T11:02:29;100308.26;;;3.72;100.00
31911;BME280;18457;52.432;16.914;2023-11-21T11:05:06;100315.94;;;3.68;100.00
31911;BME280;18457;52.432;16.914;2023-11-21T11:07:44;100320.73;;;3.63;100.00
31911;BME280;18457;52.432;16.914;2023-11-21T11:10:17;100320.20;;;3.63;100.00
31911;BME280;18457;52.432;16.914;2023-11-21T11:12:52;100322.34;;;3.60;100.00
31911;BME280;18457;52.432;16.914;2023-11-21T11:15:25;100325.17;;;3.55;100.00
31911;BME280;18457;52.432;16.914;2023-11-21T11:17:58;100325.46;;;3.32;100.00
31911;BME280;18457;52.432;16.914;2023-11-21T11:20:34;100324.20;;;3.28;100.00
31911;BME280;18457;52.432;16.914;2023-11-21T11:23:19;100330.14;;;3.41;100.00
31911;BME280;18457;52.432;16.914;2023-11-21T11:26:07;100331.94;;;3.45;100.00
31911;BME280;18457;52.432;16.914;2023-11-21T11:28:47;100331.98;;;3.57;100.00
31911;BME280;18457;52.432;16.914;2023-11-21T11:31:31;100336.45;;;3.63;100.00
31911;BME280;18457;52.432;16.914;2023-11-21T11:34:19;100336.61;;;3.60;100.00
31911;BME280;18457;52.432;16.914;2023-11-21T11:36:58;100339.10;;;3.53;100.00
31911;BME280;18457;52.432;16.914;2023-11-21T11:39:37;100337.80;;;3.38;99.94
31911;BME280;18457;52.432;16.914;2023-11-21T11:42:13;100346.52;;;3.27;100.00
31911;BME280;18457;52.432;16.914;2023-11-21T11:44:51;100358.30;;;3.30;100.00
31911;BME280;18457;52.432;16.914;2023-11-21T11:47:27;100366.86;;;3.28;100.00
31911;BME280;18457;52.432;16.914;2023-11-21T11:50:07;100370.27;;;3.29;100.00
31911;BME280;18457;52.432;16.914;2023-11-21T11:52:45;100375.10;;;3.33;100.00
31911;BME280;18457;52.432;16.914;2023-11-21T11:55:19;100379.23;;;3.41;100.00
31911;BME280;18457;52.432;16.914;2023-11-21T11:57:54;100382.61;;;3.38;100.00
31911;BME280;18457;52.432;16.914;2023-11-21T12:00:36;100391.33;;;3.30;99.92
31911;BME280;18457;52.432;16.914;2023-11-21T12:03:12;100400.59;;;3.28;99.94
31911;BME280;18457;52.432;16.914;2023-11-21T12:05:48;100404.70;;;3.29;100.00
31911;BME280;18457;52.432;16.914;2023-11-21T12:08:23;100408.27;;;3.27;100.00
31911;BME280;18457;52.432;16.914;2023-11-21T12:11:03;100407.20;;;3.29;100.00
31911;BME280;18457;52.432;16.914;2023-11-21T12:13:35;100404.27;;;3.12;99.95
31911;BME280;18457;52.432;16.914;2023-11-21T12:16:10;100405.00;;;3.15;100.00
31911;BME280;18457;52.432;16.914;2023-11-21T12:18:43;100407.85;;;3.16;100.00
31911;BME280;18457;52.432;16.914;2023-11-21T12:21:16;100407.83;;;3.12;100.00
31911;BME280;18457;52.432;16.914;2023-11-21T12:23:48;100411.91;;;3.09;100.00
31911;BME280;18457;52.432;16.914;2023-11-21T12:26:19;100413.00;;;3.13;99.24
31911;BME280;18457;52.432;16.914;2023-11-21T12:28:55;100415.23;;;2.98;98.77
31911;BME280;18457;52.432;16.914;2023-11-21T12:31:28;100415.83;;;3.07;99.37
31911;BME280;18457;52.432;16.914;2023-11-21T12:34:01;100417.32;;;3.17;99.49
31911;BME280;18457;52.432;16.914;2023-11-21T12:36:32;100420.17;;;3.17;97.93
31911;BME280;18457;52.432;16.914;2023-11-21T12:39:06;100421.01;;;3.09;96.89
31911;BME280;18457;52.432;16.914;2023-11-21T12:41:40;100419.10;;;3.17;97.73
31911;BME280;18457;52.432;16.914;2023-11-21T12:44:15;100422.70;;;3.23;97.67
31911;BME280;18457;52.432;16.914;2023-11-21T12:46:47;100422.27;;;3.09;96.09
31911;BME280;18457;52.432;16.914;2023-11-21T12:49:21;100429.76;;;3.10;96.29
31911;BME280;18457;52.432;16.914;2023-11-21T12:51:54;100433.19;;;3.16;96.74
31911;BME280;18457;52.432;16.914;2023-11-21T12:54:26;100435.52;;;3.17;97.25
31911;BME280;18457;52.432;16.914;2023-11-21T12:57:02;100431.01;;;3.11;97.90
31911;BME280;18457;52.432;16.914;2023-11-21T12:59:36;100431.95;;;3.18;97.19
31911;BME280;18457;52.432;16.914;2023-11-21T13:02:12;100433.89;;;3.12;96.44
31911;BME280;18457;52.432;16.914;2023-11-21T13:04:53;100440.63;;;3.08;96.58
31911;BME280;18457;52.432;16.914;2023-11-21T13:07:26;100450.85;;;2.90;97.22
31911;BME280;18457;52.432;16.914;2023-11-21T13:09:58;100456.41;;;2.71;97.94
31911;BME280;18457;52.432;16.914;2023-11-21T13:12:29;100468.27;;;2.79;98.69
31911;BME280;18457;52.432;16.914;2023-11-21T13:15:07;100477.63;;;2.70;98.31
31911;BME280;18457;52.432;16.914;2023-11-21T13:17:41;100478.03;;;2.76;97.44